sensor_id;sensor_type;location;lat;lon;timestamp;temperature;humidity
60717;DHT22;46566;52.700;6.192;2023-12-28T17:15:05;10.70;99.90
60717;DHT22;46566;52.700;6.192;2023-12-28T17:17:36;10.70;99.90
60717;DHT22;46566;52.700;6.192;2023-12-28T17:20:03;10.70;99.90
60717;DHT22;46566;52.700;6.192;2023-12-28T17:22:37;10.70;99.90
60717;DHT22;46566;52.700;6.192;2023-12-28T17:27:54;10.70;99.90
60717;DHT22;46566;52.700;6.192;2023-12-28T17:30:23;10.80;99.90
60717;DHT22;46566;52.700;6.192;2023-12-28T17:32:53;10.70;99.90
60717;DHT22;46566;52.700;6.192;2023-12-28T17:35:20;10.80;99.90
60717;DHT22;46566;52.700;6.192;2023-12-28T17:37:48;10.80;99.90
60717;DHT22;46566;52.700;6.192;2023-12-28T17:40:15;10.80;99.90
60717;DHT22;46566;52.700;6.192;2023-12-28T17:42:46;10.70;99.90
60717;DHT22;46566;52.700;6.192;2023-12-28T17:45:13;10.70;99.90
60717;DHT22;46566;52.700;6.192;2023-12-28T17:47:54;10.70;99.90
60717;DHT22;46566;52.700;6.192;2023-12-28T17:50:24;10.70;99.90
60717;DHT22;46566;52.700;6.192;2023-12-28T17:52:51;10.70;99.90
60717;DHT22;46566;52.700;6.192;2023-12-28T17:55:16;10.70;99.90
60717;DHT22;46566;52.700;6.192;2023-12-28T17:57:42;10.70;99.90
60717;DHT22;46566;52.700;6.192;2023-12-28T18:00:08;10.70;99.90
60717;DHT22;46566;52.700;6.192;2023-12-28T18:02:34;10.70;99.90
60717;DHT22;46566;52.700;6.192;2023-12-28T18:05:01;10.70;99.90
60717;DHT22;46566;52.700;6.192;2023-12-28T18:07:27;10.70;99.90
60717;DHT22;46566;52.700;6.192;2023-12-28T18:09:53;10.70;99.90
60717;DHT22;46566;52.700;6.192;2023-12-28T18:12:18;10.60;99.90
60717;DHT22;46566;52.700;6.192;2023-12-28T18:14:44;10.60;99.90
60717;DHT22;46566;52.700;6.192;2023-12-28T18:17:10;10.70;99.90
60717;DHT22;46566;52.700;6.192;2023-12-28T18:19:36;10.70;99.90
60717;DHT22;46566;52.700;6.192;2023-12-28T18:22:02;10.70;99.90
60717;DHT22;46566;52.700;6.192;2023-12-28T18:24:29;10.70;99.90
60717;DHT22;46566;52.700;6.192;2023-12-28T18:26:55;10.70;99.90
60717;DHT22;46566;52.700;6.192;2023-12-28T18:29:20;10.70;99.90
60717;DHT22;46566;52.700;6.192;2023-12-28T18:31:46;10.70;99.90
60717;DHT22;46566;52.700;6.192;2023-12-28T18:34:12;10.70;99.90
60717;DHT22;46566;52.700;6.192;2023-12-28T18:36:38;10.70;99.90
60717;DHT22;46566;52.700;6.192;2023-12-28T18:39:06;10.70;99.90
60717;DHT22;46566;52.700;6.192;2023-12-28T18:41:33;10.70;99.90
60717;DHT22;46566;52.700;6.192;2023-12-28T18:43:58;10.70;99.90
60717;DHT22;46566;52.700;6.192;2023-12-28T18:46:24;10.70;99.90
60717;DHT22;46566;52.700;6.192;2023-12-28T18:48:50;10.70;99.90
60717;DHT22;46566;52.700;6.192;2023-12-28T18:51:16;10.70;99.90
60717;DHT22;46566;52.700;6.192;2023-12-28T18:53:43;10.70;99.90
60717;DHT22;46566;52.700;6.192;2023-12-28T18:56:11;10.70;99.90
60717;DHT22;46566;52.700;6.192;2023-12-28T18:58:37;10.70;99.90
60717;DHT22;46566;52.700;6.192;2023-12-28T19:01:03;10.70;99.90
60717;DHT22;46566;52.700;6.192;2023-12-28T19:03:29;10.70;99.90
60717;DHT22;46566;52.700;6.192;2023-12-28T19:05:57;10.70;99.90
60717;DHT22;46566;52.700;6.192;2023-12-28T19:08:27;10.80;99.90
60717;DHT22;46566;52.700;6.192;2023-12-28T19:19:55;10.80;99.90
60717;DHT22;46566;52.700;6.192;2023-12-28T19:22:21;10.80;99.90
60717;DHT22;46566;52.700;6.192;2023-12-28T19:30:23;10.70;99.90
60717;DHT22;46566;52.700;6.192;2023-12-28T19:32:49;10.70;99.90
60717;DHT22;46566;52.700;6.192;2023-12-28T19:35:15;10.70;99.90
60717;DHT22;46566;52.700;6.192;2023-12-28T19:37:43;10.70;99.90
60717;DHT22;46566;52.700;6.192;2023-12-28T19:40:09;10.60;99.90
60717;DHT22;46566;52.700;6.192;2023-12-28T19:42:35;10.60;99.90
60717;DHT22;46566;52.700;6.192;2023-12-28T19:45:01;10.60;99.90
60717;DHT22;46566;52.700;6.192;2023-12-28T19:47:27;10.60;99.90
60717;DHT22;46566;52.700;6.192;2023-12-28T19:49:53;10.50;99.90
60717;DHT22;46566;52.700;6.192;2023-12-28T19:52:19;10.50;99.90
60717;DHT22;46566;52.700;6.192;2023-12-28T19:54:47;10.50;99.90
60717;DHT22;46566;52.700;6.192;2023-12-28T19:57:13;10.50;99.90
60717;DHT22;46566;52.700;6.192;2023-12-28T19:59:40;10.50;99.90
60717;DHT22;46566;52.700;6.192;2023-12-28T20:02:05;10.60;99.90
60717;DHT22;46566;52.700;6.192;2023-12-28T20:04:31;10.60;99.90
60717;DHT22;46566;52.700;6.192;2023-12-28T20:07:00;10.60;99.90
60717;DHT22;46566;52.700;6.192;2023-12-28T20:09:36;10.60;99.90
60717;DHT22;46566;52.700;6.192;2023-12-28T20:12:03;10.60;99.90
60717;DHT22;46566;52.700;6.192;2023-12-28T20:14:33;10.60;99.90
60717;DHT22;46566;52.700;6.192;2023-12-28T20:17:02;10.50;99.90
60717;DHT22;46566;52.700;6.192;2023-12-28T20:19:29;10.50;99.90
60717;DHT22;46566;52.700;6.192;2023-12-28T20:21:55;10.50;99.90
60717;DHT22;46566;52.700;6.192;2023-12-28T20:24:21;10.60;99.90
60717;DHT22;46566;52.700;6.192;2023-12-28T20:26:47;10.60;99.90
60717;DHT22;46566;52.700;6.192;2023-12-28T20:29:13;10.60;99.90
60717;DHT22;46566;52.700;6.192;2023-12-28T20:31:39;10.70;99.90
60717;DHT22;46566;52.700;6.192;2023-12-28T20:34:05;10.70;99.90
60717;DHT22;46566;52.700;6.192;2023-12-28T20:36:31;10.70;99.90
60717;DHT22;46566;52.700;6.192;2023-12-28T20:38:57;10.70;99.90
60717;DHT22;46566;52.700;6.192;2023-12-28T20:41:23;10.70;99.90
60717;DHT22;46566;52.700;6.192;2023-12-28T20:43:49;10.80;99.90
60717;DHT22;46566;52.700;6.192;2023-12-28T20:46:18;10.70;99.90
60717;DHT22;46566;52.700;6.192;2023-12-28T20:48:44;10.80;99.90
60717;DHT22;46566;52.700;6.192;2023-12-28T20:51:11;10.80;99.90
60717;DHT22;46566;52.700;6.192;2023-12-28T20:53:37;10.80;99.90
60717;DHT22;46566;52.700;6.192;2023-12-28T20:56:06;10.80;99.90
60717;DHT22;46566;52.700;6.192;2023-12-28T20:58:32;10.80;99.90
60717;DHT22;46566;52.700;6.192;2023-12-28T21:00:57;10.80;99.90
60717;DHT22;46566;52.700;6.192;2023-12-28T21:03:23;10.80;99.90
60717;DHT22;46566;52.700;6.192;2023-12-28T21:05:49;10.80;99.90
60717;DHT22;46566;52.700;6.192;2023-12-28T21:08:15;10.80;99.90
60717;DHT22;46566;52.700;6.192;2023-12-28T21:10:41;10.80;99.90
60717;DHT22;46566;52.700;6.192;2023-12-28T21:13:07;10.80;99.90
60717;DHT22;46566;52.700;6.192;2023-12-28T21:15:33;10.90;99.90
60717;DHT22;46566;52.700;6.192;2023-12-28T21:17:59;10.80;99.90
60717;DHT22;46566;52.700;6.192;2023-12-28T21:23:17;10.80;99.90
60717;DHT22;46566;52.700;6.192;2023-12-28T21:25:43;10.80;99.90
60717;DHT22;46566;52.700;6.192;2023-12-28T21:28:09;10.80;99.90
60717;DHT22;46566;52.700;6.192;2023-12-28T21:30:35;10.80;99.90
60717;DHT22;46566;52.700;6.192;2023-12-28T21:33:03;10.80;99.90
60717;DHT22;46566;52.700;6.192;2023-12-28T21:35:29;10.80;99.90
60717;DHT22;46566;52.700;6.192;2023-12-28T21:37:54;10.80;99.90
60717;DHT22;46566;52.700;6.192;2023-12-28T21:40:20;10.80;99.90
60717;DHT22;46566;52.700;6.192;2023-12-28T21:42:47;10.80;99.90
60717;DHT22;46566;52.700;6.192;2023-12-28T21:45:13;10.80;99.90
60717;DHT22;46566;52.700;6.192;2023-12-28T21:47:39;10.80;99.90
60717;DHT22;46566;52.700;6.192;2023-12-28T21:50:05;10.80;99.90
60717;DHT22;46566;52.700;6.192;2023-12-28T21:52:32;10.70;99.90
60717;DHT22;46566;52.700;6.192;2023-12-28T21:54:58;10.70;99.90
60717;DHT22;46566;52.700;6.192;2023-12-28T21:57:25;10.70;99.90
60717;DHT22;46566;52.700;6.192;2023-12-28T21:59:52;10.70;99.90
60717;DHT22;46566;52.700;6.192;2023-12-28T22:02:18;10.70;99.90
60717;DHT22;46566;52.700;6.192;2023-12-28T22:04:44;10.70;99.90
60717;DHT22;46566;52.700;6.192;2023-12-28T22:07:10;10.70;99.90
60717;DHT22;46566;52.700;6.192;2023-12-28T22:09:36;10.70;99.90
60717;DHT22;46566;52.700;6.192;2023-12-28T22:12:05;10.70;99.90
60717;DHT22;46566;52.700;6.192;2023-12-28T22:14:30;10.60;99.90
60717;DHT22;46566;52.700;6.192;2023-12-28T22:16:56;10.60;99.90
60717;DHT22;46566;52.700;6.192;2023-12-28T22:19:22;10.50;99.90
60717;DHT22;46566;52.700;6.192;2023-12-28T22:21:48;10.40;99.90
60717;DHT22;46566;52.700;6.192;2023-12-28T22:24:15;10.40;99.90
60717;DHT22;46566;52.700;6.192;2023-12-28T22:26:41;10.40;99.90
60717;DHT22;46566;52.700;6.192;2023-12-28T22:29:08;10.30;99.90
60717;DHT22;46566;52.700;6.192;2023-12-28T22:31:34;10.30;99.90
60717;DHT22;46566;52.700;6.192;2023-12-28T22:34:00;10.30;99.90
60717;DHT22;46566;52.700;6.192;2023-12-28T22:36:26;10.40;99.90
60717;DHT22;46566;52.700;6.192;2023-12-28T22:38:52;10.40;99.90
60717;DHT22;46566;52.700;6.192;2023-12-28T22:41:18;10.40;99.90
60717;DHT22;46566;52.700;6.192;2023-12-28T22:43:47;10.40;99.90
60717;DHT22;46566;52.700;6.192;2023-12-28T22:46:12;10.30;99.90
60717;DHT22;46566;52.700;6.192;2023-12-28T22:48:38;10.30;99.90
60717;DHT22;46566;52.700;6.192;2023-12-28T22:51:04;10.30;99.90
60717;DHT22;46566;52.700;6.192;2023-12-28T22:53:30;10.20;99.90
60717;DHT22;46566;52.700;6.192;2023-12-28T22:55:56;10.20;99.90
60717;DHT22;46566;52.700;6.192;2023-12-28T22:58:22;10.20;99.90
60717;DHT22;46566;52.700;6.192;2023-12-28T23:00:48;10.20;99.90
60717;DHT22;46566;52.700;6.192;2023-12-28T23:03:14;10.20;99.90
60717;DHT22;46566;52.700;6.192;2023-12-28T23:05:40;10.30;99.90
60717;DHT22;46566;52.700;6.192;2023-12-28T23:08:06;10.30;99.90
60717;DHT22;46566;52.700;6.192;2023-12-28T23:10:31;10.40;99.90
60717;DHT22;46566;52.700;6.192;2023-12-28T23:12:58;10.40;99.90
60717;DHT22;46566;52.700;6.192;2023-12-28T23:15:24;10.50;99.90
60717;DHT22;46566;52.700;6.192;2023-12-28T23:17:52;10.50;99.90
60717;DHT22;46566;52.700;6.192;2023-12-28T23:20:18;10.60;99.90
60717;DHT22;46566;52.700;6.192;2023-12-28T23:22:44;10.60;99.90
60717;DHT22;46566;52.700;6.192;2023-12-28T23:25:13;10.60;99.90
60717;DHT22;46566;52.700;6.192;2023-12-28T23:27:48;10.50;99.90
60717;DHT22;46566;52.700;6.192;2023-12-28T23:30:16;10.40;99.90
60717;DHT22;46566;52.700;6.192;2023-12-28T23:32:43;10.40;99.90
60717;DHT22;46566;52.700;6.192;2023-12-28T23:35:09;10.20;99.90
60717;DHT22;46566;52.700;6.192;2023-12-28T23:37:36;10.20;99.90
60717;DHT22;46566;52.700;6.192;2023-12-28T23:40:03;10.10;99.90
60717;DHT22;46566;52.700;6.192;2023-12-28T23:42:29;10.10;99.90
60717;DHT22;46566;52.700;6.192;2023-12-28T23:44:55;10.10;99.90
60717;DHT22;46566;52.700;6.192;2023-12-28T23:47:20;10.10;99.90
60717;DHT22;46566;52.700;6.192;2023-12-28T23:49:46;10.10;99.90
60717;DHT22;46566;52.700;6.192;2023-12-28T23:52:12;10.10;99.90
60717;DHT22;46566;52.700;6.192;2023-12-28T23:54:39;10.10;99.90
60717;DHT22;46566;52.700;6.192;2023-12-28T23:57:05;10.10;99.90
60717;DHT22;46566;52.700;6.192;2023-12-28T23:59:32;10.10;99.90
